Time;durP1;ratioP1;P1;durP2;ratioP2;P2;SDS_P1;SDS_P2;PMS_P1;PMS_P2;Temp;Humidity;BMP_temperature;BMP_pressure;BME280_temperature;BME280_humidity;BME280_pressure;Samples;Min_cycle;Max_cycle;Signal;HPM_P1;HPM_P2
2023/10/19 00:00:44;;;;;;;32.70;19.37;;;;;;;-145.18;100.00;46590.06;5013467;28;20033;-62
2023/10/19 00:03:11;;;;;;;33.37;19.07;;;;;;;-145.18;100.00;46586.16;5013899;28;20086;-62
2023/10/19 00:05:37;;;;;;;30.20;18.97;;;;;;;-145.18;100.00;46582.25;5012821;28;20474;-62
2023/10/19 00:10:38;;;;;;;31.88;18.60;;;;;;;-145.18;100.00;46588.13;5020224;28;20041;-62
2023/10/19 00:13:05;;;;;;;31.00;19.60;;;;;;;-145.18;100.00;46580.31;5014574;28;20037;-62
2023/10/19 00:15:35;;;;;;;35.20;19.90;;;;;;;-145.18;100.00;46584.22;5012998;28;20026;-62
2023/10/19 00:18:20;;;;;;;34.40;19.80;;;;;;;-145.18;100.00;46586.16;5013096;28;20037;-62
2023/10/19 00:20:52;;;;;;;33.73;19.70;;;;;;;-145.18;100.00;46586.16;5014495;28;20402;-62
2023/10/19 00:23:31;;;;;;;31.03;19.23;;;;;;;-145.18;100.00;46590.06;5017414;28;20119;-62
2023/10/19 00:25:58;;;;;;;34.67;20.10;;;;;;;-145.18;100.00;46590.06;5012742;28;20485;-62
2023/10/19 00:28:27;;;;;;;30.60;19.63;;;;;;;-145.18;100.00;46588.13;5014258;28;20033;-62
2023/10/19 00:30:59;;;;;;;35.47;20.17;;;;;;;-145.18;100.00;46584.22;5019950;28;20028;-64
2023/10/19 00:33:28;;;;;;;34.63;19.30;;;;;;;-145.18;100.00;46590.06;5024599;28;20054;-62
2023/10/19 00:35:58;;;;;;;32.93;19.00;;;;;;;-145.18;100.00;46586.16;5012284;28;20044;-65
2023/10/19 00:40:53;;;;;;;30.87;19.37;;;;;;;-145.18;100.00;46582.25;5012901;28;20523;-65
2023/10/19 00:43:36;;;;;;;30.97;19.07;;;;;;;-145.18;100.00;46586.16;5014951;28;20021;-66
2023/10/19 00:46:03;;;;;;;32.77;18.70;;;;;;;-145.18;100.00;46582.25;5014039;28;20028;-65
2023/10/19 00:48:29;;;;;;;34.27;18.83;;;;;;;-145.18;100.00;46584.22;5017613;28;20041;-65
2023/10/19 00:51:06;;;;;;;31.83;19.43;;;;;;;-145.18;100.00;46582.25;5029453;28;20057;-66
2023/10/19 00:53:36;;;;;;;31.50;17.60;;;;;;;-145.18;100.00;46582.25;5019436;28;20037;-66
2023/10/19 00:56:05;;;;;;;30.67;18.13;;;;;;;-145.18;100.00;46584.22;5017805;28;20502;-65
2023/10/19 00:58:35;;;;;;;36.57;18.67;;;;;;;-145.18;100.00;46586.16;5025997;28;20061;-66
2023/10/19 01:01:07;;;;;;;33.30;18.37;;;;;;;-145.18;100.00;46580.31;5023884;28;20034;-65
2023/10/19 01:03:36;;;;;;;31.50;18.30;;;;;;;-145.18;100.00;46588.13;5014077;28;20034;-65
2023/10/19 01:06:06;;;;;;;35.63;18.83;;;;;;;-145.18;100.00;46586.16;5015718;28;20022;-65
2023/10/19 01:08:34;;;;;;;28.73;18.37;;;;;;;-145.18;100.00;46584.22;5012922;28;20026;-65
2023/10/19 01:11:00;;;;;;;32.47;17.37;;;;;;;-145.18;100.00;46590.06;5018491;28;20017;-65
2023/10/19 01:13:28;;;;;;;30.70;17.73;;;;;;;-145.18;100.00;46586.16;5022829;28;20032;-65
2023/10/19 01:15:54;;;;;;;32.77;17.63;;;;;;;-145.18;100.00;46586.16;5023157;28;20084;-65
2023/10/19 01:18:19;;;;;;;28.73;16.23;;;;;;;-145.18;100.00;46586.16;5018854;28;20105;-65
2023/10/19 01:20:50;;;;;;;28.10;15.57;;;;;;;-145.18;100.00;46584.22;5023052;28;20034;-65
2023/10/19 01:29:26;;;;;;;25.90;14.63;;;;;;;-145.18;100.00;46586.16;5019479;28;20034;-66
2023/10/19 01:31:30;;;;;;;22.73;14.10;;;;;;;-145.18;100.00;46586.16;5017424;28;20038;-65
2023/10/19 01:33:58;;;;;;;25.70;13.47;;;;;;;-145.18;100.00;46588.13;5030106;28;20279;-65
2023/10/19 01:36:25;;;;;;;25.43;12.87;;;;;;;-145.18;100.00;46582.25;5025379;28;20030;-65
2023/10/19 01:38:55;;;;;;;23.13;12.30;;;;;;;-145.18;100.00;46584.22;5017059;28;20454;-65
2023/10/19 01:41:23;;;;;;;23.03;12.03;;;;;;;-145.18;100.00;46582.25;5018199;28;20034;-65
2023/10/19 01:43:53;;;;;;;19.17;10.63;;;;;;;-145.18;100.00;46586.16;5028098;28;20038;-65
2023/10/19 01:46:23;;;;;;;20.03;11.57;;;;;;;-145.18;100.00;46586.16;5019336;28;20029;-63
2023/10/19 01:48:54;;;;;;;18.30;10.40;;;;;;;-145.18;100.00;46586.16;5020036;28;20033;-63
2023/10/19 01:51:20;;;;;;;18.03;10.83;;;;;;;-145.18;100.00;46586.16;5020252;28;20021;-63
2023/10/19 01:53:47;;;;;;;17.80;9.50;;;;;;;-145.18;100.00;46584.22;5020264;28;20073;-64
2023/10/19 01:56:14;;;;;;;16.63;9.47;;;;;;;-145.18;100.00;46586.16;5018004;28;20485;-63
2023/10/19 01:58:41;;;;;;;13.27;8.80;;;;;;;-145.18;100.00;46582.25;5017938;28;20026;-63
2023/10/19 02:01:13;;;;;;;13.63;8.17;;;;;;;-145.18;100.00;46582.25;5022435;28;20410;-63
2023/10/19 02:03:43;;;;;;;16.43;8.57;;;;;;;-145.18;100.00;46584.22;5032648;28;20637;-63
2023/10/19 02:06:17;;;;;;;12.90;7.70;;;;;;;-145.18;100.00;46586.16;5029226;28;20115;-63
2023/10/19 02:08:48;;;;;;;13.30;8.37;;;;;;;-145.18;100.00;46582.25;5031397;28;20381;-63
2023/10/19 02:11:18;;;;;;;10.43;6.67;;;;;;;-145.18;100.00;46590.06;5028651;28;20022;-63
2023/10/19 02:13:46;;;;;;;12.47;6.13;;;;;;;-145.18;100.00;46584.22;5033384;28;20045;-63
2023/10/19 02:16:14;;;;;;;13.33;5.80;;;;;;;-145.18;100.00;46582.25;5027990;28;20025;-63
2023/10/19 02:18:42;;;;;;;10.03;5.47;;;;;;;-145.18;100.00;46584.22;5031247;28;20040;-63
2023/10/19 02:21:11;;;;;;;10.77;6.23;;;;;;;-145.18;100.00;46584.22;5025934;28;20393;-63
2023/10/19 02:23:41;;;;;;;10.27;5.27;;;;;;;-145.18;100.00;46584.22;5025969;28;20026;-63
2023/10/19 02:26:08;;;;;;;13.23;5.70;;;;;;;-145.18;100.00;46582.25;5024344;28;20029;-63
2023/10/19 02:28:37;;;;;;;7.33;4.43;;;;;;;-145.18;100.00;46586.16;5025021;28;20045;-63
2023/10/19 02:31:16;;;;;;;9.67;4.90;;;;;;;-145.18;100.00;46586.16;5031171;28;20025;-63
2023/10/19 02:34:04;;;;;;;11.40;4.93;;;;;;;-145.18;100.00;46586.16;5026793;28;20117;-63
2023/10/19 02:36:30;;;;;;;7.93;4.10;;;;;;;-145.18;100.00;46586.16;5026601;28;20124;-63
2023/10/19 02:38:59;;;;;;;7.30;3.43;;;;;;;-145.18;100.00;46584.22;5030409;28;20039;-62
2023/10/19 02:41:29;;;;;;;7.87;3.60;;;;;;;-145.18;100.00;46582.25;5032095;28;20018;-63
2023/10/19 02:44:19;;;;;;;7.53;3.33;;;;;;;-145.18;100.00;46588.13;5028768;28;20029;-63
2023/10/19 02:46:50;;;;;;;7.87;3.40;;;;;;;-145.18;100.00;46588.13;5033201;28;20033;-63
2023/10/19 02:49:20;;;;;;;7.47;3.93;;;;;;;-145.18;100.00;46590.06;5032967;28;20413;-63
2023/10/19 02:51:47;;;;;;;4.70;2.90;;;;;;;-145.18;100.00;46588.13;5032551;28;20504;-63
2023/10/19 02:54:18;;;;;;;7.50;3.03;;;;;;;-145.18;100.00;46584.22;5027109;28;20033;-63
2023/10/19 02:56:47;;;;;;;10.30;2.93;;;;;;;-145.18;100.00;46590.06;5018311;28;20081;-65
2023/10/19 02:59:15;;;;;;;5.23;2.50;;;;;;;-145.18;100.00;46631.09;5032771;28;20112;-66
2023/10/19 03:01:44;;;;;;;5.43;2.43;;;;;;;-145.18;100.00;46592.03;5023368;28;20492;-66
2023/10/19 03:04:12;;;;;;;7.57;2.17;;;;;;;-145.18;100.00;46590.06;5027989;28;20041;-66
2023/10/19 03:06:40;;;;;;;13.30;2.60;;;;;;;-145.18;100.00;46590.06;5030836;28;20112;-66
2023/10/19 03:11:54;;;;;;;4.63;2.10;;;;;;;-145.18;100.00;46631.09;5027556;28;20168;-66
2023/10/19 03:14:20;;;;;;;4.33;1.37;;;;;;;-145.18;100.00;46629.13;5026269;28;20104;-66
2023/10/19 03:16:45;;;;;;;2.77;1.60;;;;;;;-145.18;100.00;46588.13;5033259;28;20470;-66
2023/10/19 03:19:12;;;;;;;6.80;1.57;;;;;;;-145.18;100.00;46633.06;5020296;28;20025;-66
2023/10/19 03:21:42;;;;;;;5.20;1.27;;;;;;;-145.18;100.00;46633.06;5028813;28;20398;-66
2023/10/19 03:24:59;;;;;;;4.50;1.30;;;;;;;-145.18;100.00;46631.09;5031217;28;20057;-65
2023/10/19 03:27:00;;;;;;;2.23;1.03;;;;;;;-145.18;100.00;46635.00;5015429;28;20045;-66
2023/10/19 03:29:31;;;;;;;3.03;1.10;;;;;;;-145.18;100.00;46635.00;5025903;28;20547;-66
2023/10/19 03:31:56;;;;;;;4.30;1.30;;;;;;;-145.18;100.00;46635.00;5029341;28;20060;-66
2023/10/19 03:34:23;;;;;;;6.27;1.20;;;;;;;-145.18;100.00;46638.91;5030954;28;20513;-66
2023/10/19 03:36:50;;;;;;;3.03;1.10;;;;;;;-145.18;100.00;46652.59;4997233;28;20029;-66
2023/10/19 03:39:17;;;;;;;5.77;0.83;;;;;;;-145.18;100.00;46642.81;5023428;28;20045;-66
2023/10/19 03:41:44;;;;;;;1.53;0.83;;;;;;;-145.18;100.00;46656.50;5028914;28;20044;-66
2023/10/19 03:44:23;;;;;;;5.20;1.10;;;;;;;-145.18;100.00;46652.59;5027616;28;20099;-66
2023/10/19 03:47:04;;;;;;;6.57;1.03;;;;;;;-145.18;100.00;46660.41;5022954;28;20042;-66
2023/10/19 03:49:38;;;;;;;13.00;1.20;;;;;;;-145.18;100.00;46660.41;5016375;28;20114;-66
2023/10/19 03:54:41;;;;;;;4.77;1.03;;;;;;;-145.18;100.00;46658.44;5026851;28;20045;-65
2023/10/19 03:57:24;;;;;;;3.83;1.07;;;;;;;-145.18;100.00;46660.41;5019024;28;20049;-66
2023/10/19 03:59:57;;;;;;;6.07;1.73;;;;;;;-145.18;100.00;46656.50;5026352;28;20044;-66
2023/10/19 04:02:28;;;;;;;5.23;1.17;;;;;;;-145.18;100.00;46660.41;5021327;28;20038;-66
2023/10/19 04:04:55;;;;;;;4.40;1.13;;;;;;;-145.18;100.00;46658.44;5021496;28;20033;-63
2023/10/19 04:07:21;;;;;;;1.40;0.90;;;;;;;-145.18;100.00;46658.44;5025867;28;20029;-63
2023/10/19 04:12:32;;;;;;;4.15;0.90;;;;;;;-145.18;100.00;46660.41;5030497;28;20561;-62
2023/10/19 04:17:40;;;;;;;5.20;0.97;;;;;;;-145.18;100.00;46660.41;5025001;28;20041;-62
2023/10/19 04:22:44;;;;;;;3.67;0.67;;;;;;;-145.18;100.00;46660.41;5023690;28;20035;-63
2023/10/19 04:25:12;;;;;;;7.13;1.40;;;;;;;-145.18;100.00;46660.41;5026852;28;20137;-63
2023/10/19 04:27:42;;;;;;;6.00;0.73;;;;;;;-145.18;100.00;46660.41;5016105;28;20112;-63
2023/10/19 04:30:27;;;;;;;2.67;0.73;;;;;;;-145.18;100.00;46660.41;5021167;28;20069;-63
2023/10/19 04:32:52;;;;;;;3.67;1.00;;;;;;;-145.18;100.00;46660.41;5015147;28;20062;-63
2023/10/19 04:35:22;;;;;;;3.00;0.80;;;;;;;-145.18;100.00;46658.44;5015894;28;20025;-62
2023/10/19 04:37:52;;;;;;;10.77;1.00;;;;;;;-145.18;100.00;46658.44;5017313;28;20040;-62
2023/10/19 04:40:18;;;;;;;4.50;1.10;;;;;;;-145.18;100.00;46660.41;5028916;28;20489;-63
2023/10/19 04:42:45;;;;;;;3.93;1.10;;;;;;;-145.18;100.00;46658.44;5023527;28;20393;-63
2023/10/19 04:45:12;;;;;;;3.63;0.90;;;;;;;-145.18;100.00;46660.41;5027761;28;20548;-63
2023/10/19 04:47:39;;;;;;;7.53;1.13;;;;;;;-145.18;100.00;46660.41;5030964;28;20366;-63
2023/10/19 04:50:05;;;;;;;3.07;0.87;;;;;;;-145.18;100.00;46656.50;5028162;28;20453;-63
2023/10/19 04:52:31;;;;;;;9.00;1.37;;;;;;;-145.18;100.00;46656.50;5028038;28;20640;-63
2023/10/19 04:54:58;;;;;;;6.67;1.10;;;;;;;-145.18;100.00;46656.50;5024923;28;20545;-62
2023/10/19 04:57:24;;;;;;;6.00;1.03;;;;;;;-145.18;100.00;46660.41;5019816;28;20103;-63
2023/10/19 04:59:49;;;;;;;5.17;1.00;;;;;;;-145.18;100.00;46660.41;5017057;28;20116;-63
2023/10/19 05:02:15;;;;;;;4.23;1.67;;;;;;;-145.18;100.00;46660.41;5023012;28;20025;-63
2023/10/19 05:04:40;;;;;;;7.17;1.13;;;;;;;-145.18;100.00;46660.41;5029878;28;20517;-63
2023/10/19 05:07:09;;;;;;;5.97;1.20;;;;;;;-145.18;100.00;46658.44;5030532;28;20408;-63
2023/10/19 05:09:38;;;;;;;13.03;2.30;;;;;;;-145.18;100.00;46660.41;5029950;28;20524;-63
2023/10/19 05:12:04;;;;;;;7.03;1.50;;;;;;;-145.18;100.00;46660.41;5030563;28;20037;-63
2023/10/19 05:14:30;;;;;;;5.30;1.10;;;;;;;-145.18;100.00;46658.44;5031244;28;20037;-62
2023/10/19 05:16:55;;;;;;;6.40;1.20;;;;;;;-145.18;100.00;46658.44;5018528;28;20057;-63
2023/10/19 05:19:21;;;;;;;13.40;1.20;;;;;;;-145.18;100.00;46656.50;5006661;28;20486;-62
2023/10/19 05:21:46;;;;;;;8.40;1.10;;;;;;;-145.18;100.00;46658.44;5029733;28;20037;-62
2023/10/19 05:24:11;;;;;;;2.20;0.87;;;;;;;-145.18;100.00;46660.41;5028644;28;20087;-63
2023/10/19 05:26:37;;;;;;;5.63;0.83;;;;;;;-145.18;100.00;46658.44;5030192;28;20037;-63
2023/10/19 05:29:02;;;;;;;5.17;1.47;;;;;;;-145.18;100.00;46660.41;5016558;28;20053;-62
2023/10/19 05:31:28;;;;;;;8.23;1.50;;;;;;;-145.18;100.00;46658.44;5029498;28;20030;-63
2023/10/19 05:33:53;;;;;;;8.97;1.40;;;;;;;-145.18;100.00;46660.41;5033637;28;20695;-62
2023/10/19 05:36:19;;;;;;;3.33;1.10;;;;;;;-145.18;100.00;46660.41;5021724;28;20095;-63
2023/10/19 05:38:45;;;;;;;6.07;0.97;;;;;;;-145.18;100.00;46660.41;5018168;28;20438;-63
2023/10/19 05:41:11;;;;;;;3.77;1.40;;;;;;;-145.18;100.00;46658.44;5025994;28;20049;-63
2023/10/19 05:43:37;;;;;;;10.93;1.17;;;;;;;-145.18;100.00;46660.41;5019842;28;20388;-63
2023/10/19 05:46:03;;;;;;;2.73;1.10;;;;;;;-145.18;100.00;46660.41;5033999;28;20029;-63
2023/10/19 05:48:28;;;;;;;7.13;1.30;;;;;;;-145.18;100.00;46660.41;5016301;28;20029;-63
2023/10/19 05:50:54;;;;;;;7.83;1.37;;;;;;;-145.18;100.00;46660.41;5023447;28;20064;-63
2023/10/19 05:53:22;;;;;;;7.63;1.30;;;;;;;-145.18;100.00;46660.41;5019670;28;20026;-62
2023/10/19 05:55:49;;;;;;;5.03;1.23;;;;;;;-145.18;100.00;46660.41;5029703;28;20061;-62
2023/10/19 05:58:14;;;;;;;7.77;1.40;;;;;;;-145.18;100.00;46660.41;5023715;28;20048;-63
2023/10/19 06:00:40;;;;;;;8.73;1.90;;;;;;;-145.18;100.00;46660.41;5032582;28;20436;-63
2023/10/19 06:03:05;;;;;;;7.10;1.63;;;;;;;-145.18;100.00;46660.41;5028160;28;20034;-62
2023/10/19 06:05:30;;;;;;;5.70;1.40;;;;;;;-145.18;100.00;46629.13;5038159;28;20108;-63
2023/10/19 06:07:56;;;;;;;5.30;1.67;;;;;;;-145.18;100.00;46660.41;5025956;28;20041;-63
2023/10/19 06:10:22;;;;;;;4.43;1.23;;;;;;;-145.18;100.00;46660.41;5032583;28;20025;-62
2023/10/19 06:12:50;;;;;;;5.77;1.23;;;;;;;-145.18;100.00;46660.41;5024361;28;20037;-62
2023/10/19 06:15:17;;;;;;;5.30;1.40;;;;;;;-145.18;100.00;46660.41;5020652;28;20485;-63
2023/10/19 06:17:43;;;;;;;9.93;1.83;;;;;;;-145.18;100.00;46660.41;5027851;28;20389;-63
2023/10/19 06:20:28;;;;;;;10.43;1.47;;;;;;;-145.18;100.00;46660.41;5027895;28;20025;-63
2023/10/19 06:23:04;;;;;;;5.03;1.77;;;;;;;-145.18;100.00;46660.41;5017203;28;20025;-63
2023/10/19 06:25:30;;;;;;;4.47;1.60;;;;;;;-145.18;100.00;46660.41;5026944;28;20108;-65
2023/10/19 06:27:57;;;;;;;6.20;1.63;;;;;;;-145.18;100.00;46660.41;5050910;28;20040;-65
2023/10/19 06:30:23;;;;;;;5.73;1.33;;;;;;;-145.18;100.00;46660.41;5026968;28;20027;-65
2023/10/19 06:32:55;;;;;;;5.13;1.40;;;;;;;-145.18;100.00;46660.41;5026403;28;20510;-66
2023/10/19 06:35:22;;;;;;;4.67;1.53;;;;;;;-145.18;100.00;46660.41;5026867;28;20079;-65
2023/10/19 06:37:47;;;;;;;8.43;1.93;;;;;;;-145.18;100.00;46660.41;5027338;28;20036;-66
2023/10/19 06:40:16;;;;;;;7.83;1.67;;;;;;;-145.18;100.00;46660.41;5032300;28;20441;-66
2023/10/19 06:42:48;;;;;;;5.30;1.90;;;;;;;-145.18;100.00;46660.41;5028438;28;20021;-66
2023/10/19 06:45:14;;;;;;;11.10;2.30;;;;;;;-145.18;100.00;46660.41;5030649;28;20026;-65
2023/10/19 06:47:47;;;;;;;8.40;2.13;;;;;;;-145.18;100.00;46660.41;5057115;28;20037;-65
2023/10/19 06:50:15;;;;;;;5.80;1.60;;;;;;;-145.18;100.00;46660.41;5022959;28;20029;-65
2023/10/19 06:52:42;;;;;;;13.90;2.57;;;;;;;-145.18;100.00;46660.41;5025074;28;20075;-66
2023/10/19 06:55:16;;;;;;;10.43;1.70;;;;;;;-145.18;100.00;46660.41;5024440;28;20036;-66
2023/10/19 06:57:50;;;;;;;15.90;1.90;;;;;;;-145.18;100.00;46660.41;5020346;28;20113;-66
2023/10/19 07:00:20;;;;;;;6.63;1.50;;;;;;;-145.18;100.00;46660.41;5023320;28;20120;-65
2023/10/19 07:02:47;;;;;;;7.93;1.73;;;;;;;-145.18;100.00;46660.41;5024715;28;20025;-65
2023/10/19 07:05:24;;;;;;;9.47;1.70;;;;;;;-145.18;100.00;46660.41;5024291;28;20075;-66
2023/10/19 07:07:56;;;;;;;9.23;1.67;;;;;;;-145.18;100.00;46660.41;5025157;28;20037;-66
2023/10/19 07:10:22;;;;;;;7.87;1.53;;;;;;;-145.18;100.00;46660.41;5031220;28;20033;-66
2023/10/19 07:12:51;;;;;;;10.73;2.20;;;;;;;-145.18;100.00;46660.41;5023031;28;20040;-65
2023/10/19 07:15:19;;;;;;;13.67;2.00;;;;;;;-145.18;100.00;46660.41;5024724;28;20383;-66
2023/10/19 07:17:46;;;;;;;5.20;2.30;;;;;;;-145.18;100.00;46660.41;5021989;28;20453;-66
2023/10/19 07:20:25;;;;;;;8.60;1.90;;;;;;;-145.18;100.00;46660.41;5028571;28;20116;-66
2023/10/19 07:22:51;;;;;;;4.90;1.70;;;;;;;-145.18;100.00;46660.41;5029129;28;20026;-66
2023/10/19 07:25:20;;;;;;;10.17;2.03;;;;;;;-145.18;100.00;46660.41;5026126;28;20040;-66
2023/10/19 07:27:46;;;;;;;11.43;2.47;;;;;;;-145.18;100.00;46625.22;5029269;28;20056;-66
2023/10/19 07:30:15;;;;;;;16.97;2.90;;;;;;;-145.18;100.00;46660.41;5029176;28;20064;-66
2023/10/19 07:32:40;;;;;;;6.17;1.93;;;;;;;-145.18;100.00;46660.41;5028788;28;20498;-66
2023/10/19 07:35:06;;;;;;;8.30;2.07;;;;;;;-145.18;100.00;46627.19;5026816;28;20028;-63
2023/10/19 07:37:31;;;;;;;5.30;1.90;;;;;;;-145.18;100.00;46660.41;5040757;28;20021;-63
2023/10/19 07:39:57;;;;;;;10.87;2.33;;;;;;;-145.18;100.00;46625.22;5027072;28;20037;-63
2023/10/19 07:42:25;;;;;;;8.63;2.23;;;;;;;-145.18;100.00;46623.28;5035939;28;20037;-63
2023/10/19 07:44:51;;;;;;;9.07;2.30;;;;;;;-145.18;100.00;46660.41;5030405;28;20026;-63
2023/10/19 07:47:16;;;;;;;6.90;2.30;;;;;;;-145.18;100.00;46625.22;5037408;28;20024;-63
2023/10/19 07:49:43;;;;;;;7.23;1.77;;;;;;;-145.18;100.00;46660.41;5031582;28;20025;-63
2023/10/19 07:52:10;;;;;;;9.20;1.80;;;;;;;-145.18;100.00;46660.41;5029855;28;20030;-63
2023/10/19 07:54:36;;;;;;;11.63;2.30;;;;;;;-145.18;100.00;46654.53;5024727;28;20398;-63
2023/10/19 07:57:08;;;;;;;12.93;2.10;;;;;;;-145.18;100.00;46658.44;5032579;28;20029;-63
2023/10/19 07:59:34;;;;;;;6.80;2.17;;;;;;;-145.18;100.00;46625.22;5024177;28;20038;-63
2023/10/19 08:02:04;;;;;;;10.13;2.43;;;;;;;-145.18;100.00;46625.22;5024584;28;20033;-63
2023/10/19 08:04:30;;;;;;;8.03;2.30;;;;;;;-145.18;100.00;46617.41;5020954;28;20022;-63
2023/10/19 08:06:57;;;;;;;6.07;2.63;;;;;;;-145.18;100.00;46621.31;5025849;28;20037;-63
2023/10/19 08:09:23;;;;;;;8.47;2.47;;;;;;;-145.18;100.00;46621.31;5014454;28;20368;-63
2023/10/19 08:11:49;;;;;;;9.50;2.20;;;;;;;-145.18;100.00;46621.31;5028188;28;20044;-63
2023/10/19 08:14:15;;;;;;;9.50;2.20;;;;;;;-145.18;100.00;46625.22;5019614;28;20079;-63
2023/10/19 08:16:41;;;;;;;15.43;3.00;;;;;;;-145.18;100.00;46625.22;5025994;28;20029;-63
2023/10/19 08:19:07;;;;;;;6.47;2.40;;;;;;;-145.18;100.00;46621.31;5020792;28;20037;-63
2023/10/19 08:21:34;;;;;;;12.60;2.27;;;;;;;-145.18;100.00;46619.38;5024489;28;20025;-63
2023/10/19 08:24:04;;;;;;;13.97;2.60;;;;;;;-145.18;100.00;46621.31;5028831;28;20040;-63
2023/10/19 08:26:30;;;;;;;6.77;1.90;;;;;;;-145.18;100.00;46625.22;5056579;28;20037;-63
2023/10/19 08:28:55;;;;;;;7.83;2.17;;;;;;;-145.18;100.00;46621.31;5023928;28;20478;-63
2023/10/19 08:31:21;;;;;;;8.83;2.20;;;;;;;-145.18;100.00;46621.31;5023486;28;20112;-63
2023/10/19 08:33:47;;;;;;;17.97;2.40;;;;;;;-145.18;100.00;46621.31;5022744;28;20053;-63
2023/10/19 08:36:19;;;;;;;8.97;2.27;;;;;;;-145.18;100.00;46619.38;5028823;28;20070;-63
2023/10/19 08:38:45;;;;;;;10.97;1.80;;;;;;;-145.18;100.00;46623.28;5024424;28;20033;-63
2023/10/19 08:41:10;;;;;;;7.87;2.17;;;;;;;-145.18;100.00;46625.22;5026910;28;20033;-63
2023/10/19 08:43:39;;;;;;;9.57;2.17;;;;;;;-145.18;100.00;46627.19;5034057;28;20444;-63
2023/10/19 08:46:05;;;;;;;9.80;2.07;;;;;;;-145.18;100.00;46621.31;5029566;28;20377;-63
2023/10/19 08:48:34;;;;;;;8.40;2.10;;;;;;;-145.18;100.00;46625.22;5017427;28;20520;-63
2023/10/19 08:51:02;;;;;;;8.10;2.20;;;;;;;-145.18;100.00;46625.22;5028688;28;20393;-63
2023/10/19 08:53:29;;;;;;;7.10;2.27;;;;;;;-145.18;100.00;46623.28;5019195;28;20060;-63
2023/10/19 08:55:55;;;;;;;11.17;2.13;;;;;;;-145.18;100.00;46627.19;5027107;28;20037;-63
2023/10/19 08:58:22;;;;;;;10.17;1.80;;;;;;;-145.18;100.00;46629.13;5033611;28;20017;-63
2023/10/19 09:00:54;;;;;;;7.27;2.03;;;;;;;-145.18;100.00;46633.06;5028120;28;20086;-63
2023/10/19 09:03:19;;;;;;;9.03;2.10;;;;;;;-145.18;100.00;46631.09;5022334;28;20021;-63
2023/10/19 09:05:46;;;;;;;8.70;2.07;;;;;;;-145.18;100.00;46636.94;5028345;28;20056;-63
2023/10/19 09:08:19;;;;;;;15.27;2.40;;;;;;;-145.18;100.00;46640.88;5032964;28;20029;-63
2023/10/19 09:10:45;;;;;;;11.03;2.40;;;;;;;-145.18;100.00;46640.88;5030895;28;20041;-63
2023/10/19 09:13:12;;;;;;;13.83;2.10;;;;;;;-145.18;100.00;46648.69;5029863;28;20033;-62
2023/10/19 09:15:39;;;;;;;6.93;2.00;;;;;;;-145.18;100.00;46648.69;5030489;28;20045;-63
2023/10/19 09:18:20;;;;;;;11.13;2.40;;;;;;;-145.18;100.00;46652.59;5033589;28;20021;-62
2023/10/19 09:21:02;;;;;;;9.93;1.90;;;;;;;-145.18;100.00;46654.53;5030005;28;20121;-63
2023/10/19 09:23:29;;;;;;;13.23;2.33;;;;;;;-145.18;100.00;46664.31;5034029;28;20035;-63
2023/10/19 09:25:57;;;;;;;16.80;2.20;;;;;;;-145.18;100.00;46654.53;5023973;28;20034;-63
2023/10/19 09:28:24;;;;;;;11.83;2.10;;;;;;;-145.18;100.00;46652.59;5024057;28;20017;-63
2023/10/19 09:30:50;;;;;;;7.83;2.40;;;;;;;-145.18;100.00;46652.59;5015711;28;20032;-63
2023/10/19 09:33:17;;;;;;;10.67;2.40;;;;;;;-145.18;100.00;46658.44;5030176;28;20050;-62
2023/10/19 09:35:48;;;;;;;15.03;2.70;;;;;;;-145.18;100.00;46650.63;5034453;28;20065;-63
2023/10/19 09:38:13;;;;;;;7.07;2.00;;;;;;;-145.18;100.00;46656.50;5039126;28;20449;-63
2023/10/19 09:40:39;;;;;;;7.80;2.03;;;;;;;-145.18;100.00;46656.50;5033601;28;20096;-63
2023/10/19 09:43:13;;;;;;;11.93;2.50;;;;;;;-145.18;100.00;46662.34;5037537;28;20401;-63
2023/10/19 09:45:42;;;;;;;10.53;2.23;;;;;;;-145.18;100.00;46648.69;5026765;28;20740;-62
2023/10/19 09:48:08;;;;;;;14.03;2.43;;;;;;;-145.18;100.00;46654.53;5031800;28;20029;-63
2023/10/19 09:50:34;;;;;;;12.00;2.67;;;;;;;-145.18;100.00;46654.53;5032421;28;20448;-63
2023/10/19 09:53:02;;;;;;;8.53;2.60;;;;;;;-145.18;100.00;46652.59;5033453;28;20072;-63
2023/10/19 09:55:33;;;;;;;12.10;3.00;;;;;;;-145.18;100.00;46654.53;5030673;28;20103;-63
2023/10/19 09:58:06;;;;;;;8.03;1.97;;;;;;;-145.18;100.00;46652.59;5028892;28;20083;-62
2023/10/19 10:00:31;;;;;;;13.73;2.30;;;;;;;-145.18;100.00;46656.50;5030221;28;20497;-62
2023/10/19 10:02:57;;;;;;;16.37;2.90;;;;;;;-145.18;100.00;46652.59;5024304;28;20087;-62
2023/10/19 10:05:38;;;;;;;7.43;1.77;;;;;;;-145.18;100.00;46650.63;5025570;28;20025;-63
2023/10/19 10:08:18;;;;;;;9.77;2.63;;;;;;;-145.18;100.00;46656.50;5026051;28;20029;-63
2023/10/19 10:10:44;;;;;;;13.23;2.53;;;;;;;-145.18;100.00;46654.53;5029372;28;20095;-63
2023/10/19 10:13:30;;;;;;;11.10;2.30;;;;;;;-145.18;100.00;46650.63;5030007;28;20033;-62
2023/10/19 10:15:57;;;;;;;8.60;1.67;;;;;;;-145.18;100.00;46648.69;5031601;28;20040;-62
2023/10/19 10:18:29;;;;;;;7.13;1.97;;;;;;;-145.18;100.00;46660.41;5032787;28;20267;-62
2023/10/19 10:21:10;;;;;;;10.87;2.00;;;;;;;-145.18;100.00;46652.59;5029724;28;20072;-63
2023/10/19 10:23:44;;;;;;;13.00;2.17;;;;;;;-145.18;100.00;46664.31;5026212;28;20060;-62
2023/10/19 10:26:13;;;;;;;8.47;2.13;;;;;;;-145.18;100.00;46660.41;5027285;28;20116;-63
2023/10/19 10:28:40;;;;;;;10.53;2.30;;;;;;;-145.18;100.00;46656.50;5023685;28;20021;-62
2023/10/19 10:31:08;;;;;;;15.63;2.10;;;;;;;-145.18;100.00;46662.34;5028099;28;20397;-63
2023/10/19 10:33:46;;;;;;;14.83;2.17;;;;;;;-145.18;100.00;46664.31;5029799;28;20053;-62
2023/10/19 10:36:13;;;;;;;11.83;2.40;;;;;;;-145.18;100.00;46670.16;5025427;28;20082;-62
2023/10/19 10:38:39;;;;;;;10.17;1.90;;;;;;;-145.18;100.00;46674.06;5018273;28;20038;-63
2023/10/19 10:41:04;;;;;;;6.10;1.73;;;;;;;-145.18;100.00;46672.13;5027500;28;20550;-63
2023/10/19 10:43:30;;;;;;;10.20;1.93;;;;;;;-145.18;100.00;46679.94;5028833;28;20037;-62
2023/10/19 10:46:08;;;;;;;10.20;2.93;;;;;;;-145.18;100.00;46681.88;5037979;28;20044;-63
2023/10/19 10:48:36;;;;;;;8.77;2.10;;;;;;;-145.18;100.00;46683.84;5027981;28;20025;-62
2023/10/19 10:51:01;;;;;;;11.20;1.73;;;;;;;-145.18;100.00;46685.78;5021880;28;20033;-62
2023/10/19 10:53:26;;;;;;;7.97;2.00;;;;;;;-145.18;100.00;46685.78;5034517;28;20279;-62
2023/10/19 10:55:53;;;;;;;9.00;2.00;;;;;;;-145.18;100.00;46681.88;5031251;28;20030;-63
2023/10/19 10:58:20;;;;;;;9.57;1.90;;;;;;;-145.18;100.00;46687.75;5029285;28;20029;-62
2023/10/19 11:00:47;;;;;;;12.57;2.50;;;;;;;-145.18;100.00;46679.94;5028658;28;20029;-63
2023/10/19 11:03:13;;;;;;;7.73;2.13;;;;;;;-145.18;100.00;46679.94;5025938;28;20029;-62
2023/10/19 11:05:39;;;;;;;11.87;1.80;;;;;;;-145.18;100.00;46679.94;5028495;28;20025;-65
2023/10/19 11:08:13;;;;;;;8.23;1.47;;;;;;;-145.18;100.00;46674.06;5026620;28;20033;-65
2023/10/19 11:10:40;;;;;;;14.50;2.23;;;;;;;-145.18;100.00;46674.06;5026213;28;20017;-65
2023/10/19 11:13:13;;;;;;;10.50;2.13;;;;;;;-145.18;100.00;46674.06;5026052;28;20438;-65
2023/10/19 11:15:47;;;;;;;8.07;1.57;;;;;;;-145.18;100.00;46672.13;5028168;28;20055;-65
2023/10/19 11:18:39;;;;;;;10.00;2.20;;;;;;;-145.18;100.00;46670.16;5029062;28;20056;-66
2023/10/19 11:21:09;;;;;;;6.93;1.70;;;;;;;-145.18;100.00;46674.06;5025779;28;20545;-65
2023/10/19 11:23:45;;;;;;;14.50;1.70;;;;;;;-145.18;100.00;46672.13;5028600;28;20017;-66
2023/10/19 11:26:11;;;;;;;;;;;;;;;-145.18;100.00;46668.22;5027295;28;20218;-65
2023/10/19 11:29:10;;;;;;;9.02;1.45;;;;;;;-145.18;100.00;46672.13;5028372;28;19913;-65
2023/10/19 11:31:37;;;;;;;7.40;1.70;;;;;;;-145.18;100.00;46672.13;5028389;28;20041;-65
2023/10/19 11:34:03;;;;;;;11.00;1.67;;;;;;;-145.18;100.00;46676.03;5026637;28;20054;-65
2023/10/19 11:36:29;;;;;;;9.27;1.43;;;;;;;-145.18;100.00;46672.13;5030659;28;20133;-65